Sunny Williams — WDE4940 — position and weather

sailwx.info

Track history (hours):
 
Tides and Currents Weather Stations Pressure Air Temp Water Temp Dewpoint Dewpoint Depression Visibility Wind Speed Wind Dir Waves Ship Positions

Sunny Williams

Owner: Marine Oil Service of New York, LLC, Elizabeth, NJ. More information available from US FCC via Universal Licensing System.

Last reported at 2017-Nov-17 21:08 UTC. Time now 2017-Nov-19 12:21 UTC.
Position N 40°39' W 074°11'.

Length 26 m.

Type: Tanker. MMSI: 367359930.

Date/timePositionNaut miles runAvg speedWind from/ knotsBaromVisibWave heightAir tempDewpointWater temp
2017-Nov-17 21:08N 40°39' W 074°11'1 8.9
2017-Nov-17 21:00N 40°39' W 074°09'2 4.3
2017-Nov-17 20:30N 40°41' W 074°09'0 0.0
2017-Nov-17 20:00N 40°41' W 074°09'0 0.0
2017-Nov-17 19:30N 40°41' W 074°09'0 0.0
2017-Nov-17 19:00N 40°41' W 074°09'0 0.0
2017-Nov-17 18:30N 40°41' W 074°09'0 0.0
2017-Nov-17 18:00N 40°41' W 074°09'1 1.6
2017-Nov-17 17:30N 40°40' W 074°08'0 0.9
2017-Nov-17 17:00N 40°40' W 074°09'0 0.0
2017-Nov-17 16:30N 40°40' W 074°09'0 0.0
2017-Nov-17 16:00N 40°40' W 074°09'0 0.0
2017-Nov-17 15:30N 40°40' W 074°09'0 0.0
2017-Nov-17 15:00N 40°40' W 074°09'0 0.8
2017-Nov-17 14:30N 40°40' W 074°09'0 0.0
2017-Nov-17 14:00N 40°40' W 074°09'0 0.0
2017-Nov-17 13:30N 40°40' W 074°09'0 0.0
2017-Nov-17 13:00N 40°40' W 074°09'0 0.0
2017-Nov-17 12:30N 40°40' W 074°09'0 0.0
2017-Nov-17 12:00N 40°40' W 074°09'0 0.0
2017-Nov-17 11:31N 40°40' W 074°09'2 3.0
2017-Nov-17 10:59N 40°39' W 074°10'2 0.1
2017-Nov-16 16:58N 40°38' W 074°12'0 1.0
2017-Nov-16 16:30N 40°39' W 074°11'0 0.0
2017-Nov-16 15:58N 40°39' W 074°11'0 0.0
2017-Nov-16 15:28N 40°39' W 074°11'0 0.0
2017-Nov-16 14:57N 40°39' W 074°11'0 1.0
2017-Nov-16 14:29N 40°38' W 074°12'0 0.0
2017-Nov-15 20:27N 40°38' W 074°12'0 0.0
2017-Nov-15 20:00N 40°38' W 074°12'0 0.0
2017-Nov-15 17:23N 40°38' W 074°12'0 0.0
2017-Nov-15 16:59N 40°38' W 074°12'0 0.0
2017-Nov-15 16:30N 40°38' W 074°12'0 0.0
2017-Nov-15 13:57N 40°38' W 074°12'0 0.0
2017-Nov-15 13:30N 40°38' W 074°12'0 0.0
2017-Nov-15 01:20N 40°38' W 074°12'2 5.6
2017-Nov-15 01:00N 40°39' W 074°09'3 6.4
2017-Nov-15 00:30N 40°39' W 074°05'2 3.5
2017-Nov-14 23:59N 40°38' W 074°04'0 0.1
2017-Nov-14 23:30N 40°38' W 074°04'0 0.0
2017-Nov-14 23:00N 40°38' W 074°04'0 0.1
2017-Nov-14 22:30N 40°38' W 074°04'0 0.1
2017-Nov-14 21:57N 40°38' W 074°04'2 4.5
2017-Nov-14 21:29N 40°36' W 074°02'0 0.1
2017-Nov-14 21:00N 40°36' W 074°02'0 0.1
2017-Nov-14 20:30N 40°36' W 074°02'1 2.4
2017-Nov-14 19:59N 40°37' W 074°03'0 0.1
2017-Nov-14 19:28N 40°37' W 074°03'0 0.4
2017-Nov-14 19:00N 40°37' W 074°03'0 0.2
2017-Nov-14 18:30N 40°37' W 074°03'0 0.0
2017-Nov-14 18:00N 40°37' W 074°03'0 0.0
2017-Nov-14 17:30N 40°37' W 074°03'0 0.1
2017-Nov-14 17:00N 40°37' W 074°03'1 1.8
2017-Nov-14 16:30N 40°37' W 074°03'4 6.8
2017-Nov-14 15:58N 40°39' W 074°08'3 0.1
2017-Nov-13 02:00N 40°38' W 074°12'0 0.0
2017-Nov-12 18:04N 40°38' W 074°12'0 0.1
2017-Nov-12 18:00N 40°38' W 074°12'2 4.8
2017-Nov-12 17:30N 40°39' W 074°09'2 3.4
2017-Nov-12 17:00N 40°41' W 074°09'0 0.1
2017-Nov-12 16:30N 40°41' W 074°09'0 0.1
2017-Nov-12 16:00N 40°41' W 074°09'2 4.4
2017-Nov-12 15:30N 40°39' W 074°09'4 8.1
2017-Nov-12 15:00N 40°39' W 074°04'1 1.2
2017-Nov-12 14:30N 40°39' W 074°03'0 0.0
2017-Nov-12 14:00N 40°39' W 074°03'3 5.2
2017-Nov-12 13:29N 40°39' W 074°07'4 7.2
2017-Nov-12 13:00N 40°39' W 074°11'  
2017-Nov-09 00:52N 40°38' W 074°12'2 6.3
2017-Nov-09 00:30N 40°39' W 074°09'4 7.7
2017-Nov-09 00:00N 40°38' W 074°04'0 0.4
2017-Nov-08 23:30N 40°38' W 074°04'0 0.1
2017-Nov-08 23:00N 40°38' W 074°04'0 0.1
2017-Nov-08 22:30N 40°38' W 074°04'1 1.3
2017-Nov-08 22:00N 40°38' W 074°04'4 8.2
2017-Nov-08 21:30N 40°39' W 074°09'1 2.9
2017-Nov-08 21:00N 40°39' W 074°11'0 0.9
2017-Nov-08 20:30N 40°38' W 074°12'0 0.0
2017-Nov-08 20:00N 40°38' W 074°12'2 4.7
2017-Nov-08 19:30N 40°39' W 074°09'1 2.3
2017-Nov-08 19:00N 40°40' W 074°08'0 0.0
2017-Nov-08 18:30N 40°40' W 074°08'0 0.0
2017-Nov-08 18:00N 40°40' W 074°08'0 0.0
2017-Nov-08 17:30N 40°40' W 074°08'0 0.0
2017-Nov-08 17:00N 40°40' W 074°08'0 0.0
2017-Nov-08 16:30N 40°40' W 074°08'0 0.0
2017-Nov-08 16:00N 40°40' W 074°08'0 0.0
2017-Nov-08 15:30N 40°40' W 074°08'1 1.1
2017-Nov-08 15:00N 40°40' W 074°09'0 0.0
2017-Nov-08 14:30N 40°40' W 074°09'0 0.0
2017-Nov-08 14:00N 40°40' W 074°09'0 0.0
2017-Nov-08 13:30N 40°40' W 074°09'2 4.0
2017-Nov-08 12:59N 40°39' W 074°11'1 0.1
2017-Nov-08 04:47N 40°38' W 074°12'0 0.1
2017-Nov-08 04:30N 40°38' W 074°12'2 3.9
2017-Nov-08 04:00N 40°39' W 074°09'4 8.1
2017-Nov-08 03:30N 40°39' W 074°04'0 0.2
2017-Nov-08 03:00N 40°39' W 074°04'0 0.3
2017-Nov-08 02:30N 40°38' W 074°04'0 0.3
2017-Nov-08 02:00N 40°38' W 074°04'3 6.2
2017-Nov-08 01:26N 40°39' W 074°08'3 5.9
2017-Nov-08 00:59N 40°38' W 074°12'0 0.0
2017-Nov-08 00:30N 40°38' W 074°12'  
Track history (hours):
 
Tides and Currents Weather Stations Pressure Air Temp Water Temp Dewpoint Dewpoint Depression Visibility Wind Speed Wind Dir Waves Ship Positions

Sunny Williams

Owner: Marine Oil Service of New York, LLC, Elizabeth, NJ. More information available from US FCC via Universal Licensing System.

Last reported at 2017-Nov-17 21:08 UTC. Time now 2017-Nov-19 12:21 UTC.
Position N 40°39' W 074°11'.

Length 26 m.

Type: Tanker. MMSI: 367359930.

Date/timePositionNaut miles runAvg speedWind from/ knotsBaromVisibWave heightAir tempDewpointWater temp
2017-Nov-17 21:08N 40°39' W 074°11'1 8.9
2017-Nov-17 21:00N 40°39' W 074°09'2 4.3
2017-Nov-17 20:30N 40°41' W 074°09'0 0.0
2017-Nov-17 20:00N 40°41' W 074°09'0 0.0
2017-Nov-17 19:30N 40°41' W 074°09'0 0.0
2017-Nov-17 19:00N 40°41' W 074°09'0 0.0
2017-Nov-17 18:30N 40°41' W 074°09'0 0.0
2017-Nov-17 18:00N 40°41' W 074°09'1 1.6
2017-Nov-17 17:30N 40°40' W 074°08'0 0.9
2017-Nov-17 17:00N 40°40' W 074°09'0 0.0
2017-Nov-17 16:30N 40°40' W 074°09'0 0.0
2017-Nov-17 16:00N 40°40' W 074°09'0 0.0
2017-Nov-17 15:30N 40°40' W 074°09'0 0.0
2017-Nov-17 15:00N 40°40' W 074°09'0 0.8
2017-Nov-17 14:30N 40°40' W 074°09'0 0.0
2017-Nov-17 14:00N 40°40' W 074°09'0 0.0
2017-Nov-17 13:30N 40°40' W 074°09'0 0.0
2017-Nov-17 13:00N 40°40' W 074°09'0 0.0
2017-Nov-17 12:30N 40°40' W 074°09'0 0.0
2017-Nov-17 12:00N 40°40' W 074°09'0 0.0
2017-Nov-17 11:31N 40°40' W 074°09'2 3.0
2017-Nov-17 10:59N 40°39' W 074°10'2 0.1
2017-Nov-16 16:58N 40°38' W 074°12'0 1.0
2017-Nov-16 16:30N 40°39' W 074°11'0 0.0
2017-Nov-16 15:58N 40°39' W 074°11'0 0.0
2017-Nov-16 15:28N 40°39' W 074°11'0 0.0
2017-Nov-16 14:57N 40°39' W 074°11'0 1.0
2017-Nov-16 14:29N 40°38' W 074°12'0 0.0
2017-Nov-15 20:27N 40°38' W 074°12'0 0.0
2017-Nov-15 20:00N 40°38' W 074°12'0 0.0
2017-Nov-15 17:23N 40°38' W 074°12'0 0.0
2017-Nov-15 16:59N 40°38' W 074°12'0 0.0
2017-Nov-15 16:30N 40°38' W 074°12'0 0.0
2017-Nov-15 13:57N 40°38' W 074°12'0 0.0
2017-Nov-15 13:30N 40°38' W 074°12'0 0.0
2017-Nov-15 01:20N 40°38' W 074°12'2 5.6
2017-Nov-15 01:00N 40°39' W 074°09'3 6.4
2017-Nov-15 00:30N 40°39' W 074°05'2 3.5
2017-Nov-14 23:59N 40°38' W 074°04'0 0.1
2017-Nov-14 23:30N 40°38' W 074°04'0 0.0
2017-Nov-14 23:00N 40°38' W 074°04'0 0.1
2017-Nov-14 22:30N 40°38' W 074°04'0 0.1
2017-Nov-14 21:57N 40°38' W 074°04'2 4.5
2017-Nov-14 21:29N 40°36' W 074°02'0 0.1
2017-Nov-14 21:00N 40°36' W 074°02'0 0.1
2017-Nov-14 20:30N 40°36' W 074°02'1 2.4
2017-Nov-14 19:59N 40°37' W 074°03'0 0.1
2017-Nov-14 19:28N 40°37' W 074°03'0 0.4
2017-Nov-14 19:00N 40°37' W 074°03'0 0.2
2017-Nov-14 18:30N 40°37' W 074°03'0 0.0
2017-Nov-14 18:00N 40°37' W 074°03'0 0.0
2017-Nov-14 17:30N 40°37' W 074°03'0 0.1
2017-Nov-14 17:00N 40°37' W 074°03'1 1.8
2017-Nov-14 16:30N 40°37' W 074°03'4 6.8
2017-Nov-14 15:58N 40°39' W 074°08'3 0.1
2017-Nov-13 02:00N 40°38' W 074°12'0 0.0
2017-Nov-12 18:04N 40°38' W 074°12'0 0.1
2017-Nov-12 18:00N 40°38' W 074°12'2 4.8
2017-Nov-12 17:30N 40°39' W 074°09'2 3.4
2017-Nov-12 17:00N 40°41' W 074°09'0 0.1
2017-Nov-12 16:30N 40°41' W 074°09'0 0.1
2017-Nov-12 16:00N 40°41' W 074°09'2 4.4
2017-Nov-12 15:30N 40°39' W 074°09'4 8.1
2017-Nov-12 15:00N 40°39' W 074°04'1 1.2
2017-Nov-12 14:30N 40°39' W 074°03'0 0.0
2017-Nov-12 14:00N 40°39' W 074°03'3 5.2
2017-Nov-12 13:29N 40°39' W 074°07'4 7.2
2017-Nov-12 13:00N 40°39' W 074°11'  
2017-Nov-09 00:52N 40°38' W 074°12'2 6.3
2017-Nov-09 00:30N 40°39' W 074°09'4 7.7
2017-Nov-09 00:00N 40°38' W 074°04'0 0.4
2017-Nov-08 23:30N 40°38' W 074°04'0 0.1
2017-Nov-08 23:00N 40°38' W 074°04'0 0.1
2017-Nov-08 22:30N 40°38' W 074°04'1 1.3
2017-Nov-08 22:00N 40°38' W 074°04'4 8.2
2017-Nov-08 21:30N 40°39' W 074°09'1 2.9
2017-Nov-08 21:00N 40°39' W 074°11'0 0.9
2017-Nov-08 20:30N 40°38' W 074°12'0 0.0
2017-Nov-08 20:00N 40°38' W 074°12'2 4.7
2017-Nov-08 19:30N 40°39' W 074°09'1 2.3
2017-Nov-08 19:00N 40°40' W 074°08'0 0.0
2017-Nov-08 18:30N 40°40' W 074°08'0 0.0
2017-Nov-08 18:00N 40°40' W 074°08'0 0.0
2017-Nov-08 17:30N 40°40' W 074°08'0 0.0
2017-Nov-08 17:00N 40°40' W 074°08'0 0.0
2017-Nov-08 16:30N 40°40' W 074°08'0 0.0
2017-Nov-08 16:00N 40°40' W 074°08'0 0.0
2017-Nov-08 15:30N 40°40' W 074°08'1 1.1
2017-Nov-08 15:00N 40°40' W 074°09'0 0.0
2017-Nov-08 14:30N 40°40' W 074°09'0 0.0
2017-Nov-08 14:00N 40°40' W 074°09'0 0.0
2017-Nov-08 13:30N 40°40' W 074°09'2 4.0
2017-Nov-08 12:59N 40°39' W 074°11'1 0.1
2017-Nov-08 04:47N 40°38' W 074°12'0 0.1
2017-Nov-08 04:30N 40°38' W 074°12'2 3.9
2017-Nov-08 04:00N 40°39' W 074°09'4 8.1
2017-Nov-08 03:30N 40°39' W 074°04'0 0.2
2017-Nov-08 03:00N 40°39' W 074°04'0 0.3
2017-Nov-08 02:30N 40°38' W 074°04'0 0.3
2017-Nov-08 02:00N 40°38' W 074°04'3 6.2
2017-Nov-08 01:26N 40°39' W 074°08'3 5.9
2017-Nov-08 00:59N 40°38' W 074°12'0 0.0
2017-Nov-08 00:30N 40°38' W 074°12'  

Dump ship's entire track history